<?xml version="1.0" encoding="UTF-8" standalone="no" ?>
<gpx xmlns="http://www.topografix.com/GPX/1/1" xmlns:xsi="http://www.w3.org/2001/XMLSchema-instance" xsi:schemaLocation="http://www.topografix.com/GPX/1/1 http://www.topografix.com/GPX/1/1/gpx.xsd" version="1.1" creator="VisuGPX - https://www.visugpx.com">
  <metadata>
    <name>13966652-Circuit Famille 6 kms</name>
  </metadata>
  <trk>
    <name><![CDATA[13966652-Circuit Famille 6 kms]]></name>
    <trkseg>
      <trkpt lat="46.5951" lon="-1.45337">
        <ele>54</ele>
        <time>2022-02-27T21:16:43Z</time>
      </trkpt>
      <trkpt lat="46.59535" lon="-1.45327">
        <ele>55</ele>
        <time>2022-02-27T21:17:18Z</time>
      </trkpt>
      <trkpt lat="46.59516" lon="-1.45255">
        <ele>53</ele>
        <time>2022-02-27T21:18:28Z</time>
      </trkpt>
      <trkpt lat="46.59519" lon="-1.45232">
        <ele>52</ele>
        <time>2022-02-27T21:18:50Z</time>
      </trkpt>
      <trkpt lat="46.59526" lon="-1.45209">
        <ele>52</ele>
        <time>2022-02-27T21:19:13Z</time>
      </trkpt>
      <trkpt lat="46.59555" lon="-1.45168">
        <ele>52</ele>
        <time>2022-02-27T21:20:07Z</time>
      </trkpt>
      <trkpt lat="46.59548" lon="-1.45159">
        <ele>52</ele>
        <time>2022-02-27T21:20:19Z</time>
      </trkpt>
      <trkpt lat="46.59539" lon="-1.45149">
        <ele>51</ele>
        <time>2022-02-27T21:20:34Z</time>
      </trkpt>
      <trkpt lat="46.59529" lon="-1.45146">
        <ele>51</ele>
        <time>2022-02-27T21:20:48Z</time>
      </trkpt>
      <trkpt lat="46.59519" lon="-1.45148">
        <ele>51</ele>
        <time>2022-02-27T21:21:01Z</time>
      </trkpt>
      <trkpt lat="46.59509" lon="-1.45112">
        <ele>52</ele>
        <time>2022-02-27T21:21:37Z</time>
      </trkpt>
      <trkpt lat="46.59502" lon="-1.45083">
        <ele>52</ele>
        <time>2022-02-27T21:22:05Z</time>
      </trkpt>
      <trkpt lat="46.59565" lon="-1.4505">
        <ele>52</ele>
        <time>2022-02-27T21:23:35Z</time>
      </trkpt>
      <trkpt lat="46.59545" lon="-1.44951">
        <ele>55</ele>
        <time>2022-02-27T21:25:09Z</time>
      </trkpt>
      <trkpt lat="46.59547" lon="-1.4494">
        <ele>55</ele>
        <time>2022-02-27T21:25:20Z</time>
      </trkpt>
      <trkpt lat="46.5954" lon="-1.44932">
        <ele>56</ele>
        <time>2022-02-27T21:25:32Z</time>
      </trkpt>
      <trkpt lat="46.59529" lon="-1.4493">
        <ele>56</ele>
        <time>2022-02-27T21:25:46Z</time>
      </trkpt>
      <trkpt lat="46.59515" lon="-1.44909">
        <ele>57</ele>
        <time>2022-02-27T21:26:13Z</time>
      </trkpt>
      <trkpt lat="46.59511" lon="-1.44889">
        <ele>58</ele>
        <time>2022-02-27T21:26:32Z</time>
      </trkpt>
      <trkpt lat="46.59498" lon="-1.44872">
        <ele>59</ele>
        <time>2022-02-27T21:26:56Z</time>
      </trkpt>
      <trkpt lat="46.59488" lon="-1.44803">
        <ele>60</ele>
        <time>2022-02-27T21:28:00Z</time>
      </trkpt>
      <trkpt lat="46.59557" lon="-1.44839">
        <ele>57</ele>
        <time>2022-02-27T21:29:38Z</time>
      </trkpt>
      <trkpt lat="46.59625" lon="-1.44839">
        <ele>56</ele>
        <time>2022-02-27T21:31:09Z</time>
      </trkpt>
      <trkpt lat="46.59683" lon="-1.44842">
        <ele>55</ele>
        <time>2022-02-27T21:32:26Z</time>
      </trkpt>
      <trkpt lat="46.59705" lon="-1.44839">
        <ele>55</ele>
        <time>2022-02-27T21:32:56Z</time>
      </trkpt>
      <trkpt lat="46.59732" lon="-1.44839">
        <ele>54</ele>
        <time>2022-02-27T21:33:32Z</time>
      </trkpt>
      <trkpt lat="46.59773" lon="-1.44919">
        <ele>52</ele>
        <time>2022-02-27T21:35:03Z</time>
      </trkpt>
      <trkpt lat="46.5976" lon="-1.44953">
        <ele>53</ele>
        <time>2022-02-27T21:35:39Z</time>
      </trkpt>
      <trkpt lat="46.59754" lon="-1.44988">
        <ele>55</ele>
        <time>2022-02-27T21:36:12Z</time>
      </trkpt>
      <trkpt lat="46.59761" lon="-1.45071">
        <ele>56</ele>
        <time>2022-02-27T21:37:29Z</time>
      </trkpt>
      <trkpt lat="46.59825" lon="-1.45059">
        <ele>58</ele>
        <time>2022-02-27T21:38:55Z</time>
      </trkpt>
      <trkpt lat="46.59881" lon="-1.45049">
        <ele>59</ele>
        <time>2022-02-27T21:40:10Z</time>
      </trkpt>
      <trkpt lat="46.59914" lon="-1.45023">
        <ele>59</ele>
        <time>2022-02-27T21:41:00Z</time>
      </trkpt>
      <trkpt lat="46.59953" lon="-1.4497">
        <ele>57</ele>
        <time>2022-02-27T21:42:11Z</time>
      </trkpt>
      <trkpt lat="46.59987" lon="-1.44968">
        <ele>56</ele>
        <time>2022-02-27T21:42:57Z</time>
      </trkpt>
      <trkpt lat="46.60015" lon="-1.44959">
        <ele>57</ele>
        <time>2022-02-27T21:43:35Z</time>
      </trkpt>
      <trkpt lat="46.60031" lon="-1.44937">
        <ele>57</ele>
        <time>2022-02-27T21:44:04Z</time>
      </trkpt>
      <trkpt lat="46.60035" lon="-1.44911">
        <ele>57</ele>
        <time>2022-02-27T21:44:29Z</time>
      </trkpt>
      <trkpt lat="46.60043" lon="-1.44898">
        <ele>57</ele>
        <time>2022-02-27T21:44:45Z</time>
      </trkpt>
      <trkpt lat="46.60059" lon="-1.44893">
        <ele>58</ele>
        <time>2022-02-27T21:45:07Z</time>
      </trkpt>
      <trkpt lat="46.60125" lon="-1.44925">
        <ele>60</ele>
        <time>2022-02-27T21:46:40Z</time>
      </trkpt>
      <trkpt lat="46.60137" lon="-1.44907">
        <ele>60</ele>
        <time>2022-02-27T21:47:03Z</time>
      </trkpt>
      <trkpt lat="46.60186" lon="-1.44868">
        <ele>60</ele>
        <time>2022-02-27T21:48:17Z</time>
      </trkpt>
      <trkpt lat="46.60216" lon="-1.4484">
        <ele>59</ele>
        <time>2022-02-27T21:49:05Z</time>
      </trkpt>
      <trkpt lat="46.6023" lon="-1.44823">
        <ele>59</ele>
        <time>2022-02-27T21:49:29Z</time>
      </trkpt>
      <trkpt lat="46.60287" lon="-1.44861">
        <ele>59</ele>
        <time>2022-02-27T21:50:53Z</time>
      </trkpt>
      <trkpt lat="46.60348" lon="-1.44783">
        <ele>56</ele>
        <time>2022-02-27T21:52:41Z</time>
      </trkpt>
      <trkpt lat="46.60396" lon="-1.44683">
        <ele>53</ele>
        <time>2022-02-27T21:54:33Z</time>
      </trkpt>
      <trkpt lat="46.60409" lon="-1.44546">
        <ele>50</ele>
        <time>2022-02-27T21:56:40Z</time>
      </trkpt>
      <trkpt lat="46.60421" lon="-1.44518">
        <ele>50</ele>
        <time>2022-02-27T21:57:10Z</time>
      </trkpt>
      <trkpt lat="46.60434" lon="-1.4447">
        <ele>48</ele>
        <time>2022-02-27T21:57:57Z</time>
      </trkpt>
      <trkpt lat="46.60439" lon="-1.44449">
        <ele>47</ele>
        <time>2022-02-27T21:58:18Z</time>
      </trkpt>
      <trkpt lat="46.60455" lon="-1.4445">
        <ele>47</ele>
        <time>2022-02-27T21:58:39Z</time>
      </trkpt>
      <trkpt lat="46.60492" lon="-1.44431">
        <ele>46</ele>
        <time>2022-02-27T21:59:31Z</time>
      </trkpt>
      <trkpt lat="46.60527" lon="-1.44424">
        <ele>47</ele>
        <time>2022-02-27T22:00:18Z</time>
      </trkpt>
      <trkpt lat="46.60556" lon="-1.44403">
        <ele>47</ele>
        <time>2022-02-27T22:01:02Z</time>
      </trkpt>
      <trkpt lat="46.60582" lon="-1.44389">
        <ele>47</ele>
        <time>2022-02-27T22:01:39Z</time>
      </trkpt>
      <trkpt lat="46.60618" lon="-1.44371">
        <ele>47</ele>
        <time>2022-02-27T22:02:29Z</time>
      </trkpt>
      <trkpt lat="46.6063" lon="-1.44387">
        <ele>47</ele>
        <time>2022-02-27T22:02:51Z</time>
      </trkpt>
      <trkpt lat="46.60631" lon="-1.44432">
        <ele>48</ele>
        <time>2022-02-27T22:03:32Z</time>
      </trkpt>
      <trkpt lat="46.60641" lon="-1.44441">
        <ele>48</ele>
        <time>2022-02-27T22:03:48Z</time>
      </trkpt>
      <trkpt lat="46.6065" lon="-1.4443">
        <ele>48</ele>
        <time>2022-02-27T22:04:04Z</time>
      </trkpt>
      <trkpt lat="46.60654" lon="-1.44388">
        <ele>47</ele>
        <time>2022-02-27T22:04:43Z</time>
      </trkpt>
      <trkpt lat="46.60667" lon="-1.44381">
        <ele>47</ele>
        <time>2022-02-27T22:05:01Z</time>
      </trkpt>
      <trkpt lat="46.60674" lon="-1.44255">
        <ele>45</ele>
        <time>2022-02-27T22:06:57Z</time>
      </trkpt>
      <trkpt lat="46.60611" lon="-1.44056">
        <ele>52</ele>
        <time>2022-02-27T22:10:18Z</time>
      </trkpt>
      <trkpt lat="46.60556" lon="-1.43854">
        <ele>57</ele>
        <time>2022-02-27T22:13:37Z</time>
      </trkpt>
      <trkpt lat="46.6051" lon="-1.437">
        <ele>63</ele>
        <time>2022-02-27T22:16:11Z</time>
      </trkpt>
      <trkpt lat="46.60528" lon="-1.4368">
        <ele>64</ele>
        <time>2022-02-27T22:16:41Z</time>
      </trkpt>
      <trkpt lat="46.6051" lon="-1.437">
        <ele>63</ele>
        <time>2022-02-27T22:17:12Z</time>
      </trkpt>
      <trkpt lat="46.60557" lon="-1.43853">
        <ele>57</ele>
        <time>2022-02-27T22:19:45Z</time>
      </trkpt>
      <trkpt lat="46.60612" lon="-1.44057">
        <ele>52</ele>
        <time>2022-02-27T22:23:06Z</time>
      </trkpt>
      <trkpt lat="46.60673" lon="-1.44256">
        <ele>45</ele>
        <time>2022-02-27T22:26:26Z</time>
      </trkpt>
      <trkpt lat="46.60666" lon="-1.4438">
        <ele>47</ele>
        <time>2022-02-27T22:28:20Z</time>
      </trkpt>
      <trkpt lat="46.60654" lon="-1.44387">
        <ele>47</ele>
        <time>2022-02-27T22:28:37Z</time>
      </trkpt>
      <trkpt lat="46.6065" lon="-1.44426">
        <ele>47</ele>
        <time>2022-02-27T22:29:13Z</time>
      </trkpt>
      <trkpt lat="46.60641" lon="-1.44442">
        <ele>48</ele>
        <time>2022-02-27T22:29:32Z</time>
      </trkpt>
      <trkpt lat="46.60631" lon="-1.44433">
        <ele>48</ele>
        <time>2022-02-27T22:29:48Z</time>
      </trkpt>
      <trkpt lat="46.6063" lon="-1.44385">
        <ele>47</ele>
        <time>2022-02-27T22:30:32Z</time>
      </trkpt>
      <trkpt lat="46.60617" lon="-1.44372">
        <ele>47</ele>
        <time>2022-02-27T22:30:53Z</time>
      </trkpt>
      <trkpt lat="46.60582" lon="-1.4439">
        <ele>47</ele>
        <time>2022-02-27T22:31:43Z</time>
      </trkpt>
      <trkpt lat="46.60555" lon="-1.44401">
        <ele>47</ele>
        <time>2022-02-27T22:32:20Z</time>
      </trkpt>
      <trkpt lat="46.60527" lon="-1.44424">
        <ele>47</ele>
        <time>2022-02-27T22:33:03Z</time>
      </trkpt>
      <trkpt lat="46.60492" lon="-1.44431">
        <ele>46</ele>
        <time>2022-02-27T22:33:50Z</time>
      </trkpt>
      <trkpt lat="46.60455" lon="-1.4445">
        <ele>47</ele>
        <time>2022-02-27T22:34:42Z</time>
      </trkpt>
      <trkpt lat="46.60438" lon="-1.44449">
        <ele>47</ele>
        <time>2022-02-27T22:35:05Z</time>
      </trkpt>
      <trkpt lat="46.60433" lon="-1.44469">
        <ele>48</ele>
        <time>2022-02-27T22:35:25Z</time>
      </trkpt>
      <trkpt lat="46.6042" lon="-1.44518">
        <ele>50</ele>
        <time>2022-02-27T22:36:13Z</time>
      </trkpt>
      <trkpt lat="46.60408" lon="-1.44544">
        <ele>50</ele>
        <time>2022-02-27T22:36:42Z</time>
      </trkpt>
      <trkpt lat="46.60397" lon="-1.44681">
        <ele>53</ele>
        <time>2022-02-27T22:38:48Z</time>
      </trkpt>
      <trkpt lat="46.60348" lon="-1.44782">
        <ele>56</ele>
        <time>2022-02-27T22:40:41Z</time>
      </trkpt>
      <trkpt lat="46.60287" lon="-1.44861">
        <ele>59</ele>
        <time>2022-02-27T22:42:30Z</time>
      </trkpt>
      <trkpt lat="46.6023" lon="-1.44825">
        <ele>59</ele>
        <time>2022-02-27T22:43:53Z</time>
      </trkpt>
      <trkpt lat="46.60216" lon="-1.44839">
        <ele>59</ele>
        <time>2022-02-27T22:44:16Z</time>
      </trkpt>
      <trkpt lat="46.60185" lon="-1.44868">
        <ele>60</ele>
        <time>2022-02-27T22:45:05Z</time>
      </trkpt>
      <trkpt lat="46.60137" lon="-1.44906">
        <ele>60</ele>
        <time>2022-02-27T22:46:18Z</time>
      </trkpt>
      <trkpt lat="46.60125" lon="-1.44928">
        <ele>60</ele>
        <time>2022-02-27T22:46:44Z</time>
      </trkpt>
      <trkpt lat="46.60081" lon="-1.44906">
        <ele>59</ele>
        <time>2022-02-27T22:47:46Z</time>
      </trkpt>
      <trkpt lat="46.60061" lon="-1.44894">
        <ele>58</ele>
        <time>2022-02-27T22:48:15Z</time>
      </trkpt>
      <trkpt lat="46.60043" lon="-1.44899">
        <ele>57</ele>
        <time>2022-02-27T22:48:39Z</time>
      </trkpt>
      <trkpt lat="46.60034" lon="-1.44911">
        <ele>57</ele>
        <time>2022-02-27T22:48:55Z</time>
      </trkpt>
      <trkpt lat="46.60031" lon="-1.44938">
        <ele>57</ele>
        <time>2022-02-27T22:49:21Z</time>
      </trkpt>
      <trkpt lat="46.60015" lon="-1.4496">
        <ele>57</ele>
        <time>2022-02-27T22:49:50Z</time>
      </trkpt>
      <trkpt lat="46.59987" lon="-1.44968">
        <ele>56</ele>
        <time>2022-02-27T22:50:28Z</time>
      </trkpt>
      <trkpt lat="46.59953" lon="-1.4497">
        <ele>57</ele>
        <time>2022-02-27T22:51:13Z</time>
      </trkpt>
      <trkpt lat="46.59935" lon="-1.44993">
        <ele>58</ele>
        <time>2022-02-27T22:51:45Z</time>
      </trkpt>
      <trkpt lat="46.59914" lon="-1.45023">
        <ele>59</ele>
        <time>2022-02-27T22:52:25Z</time>
      </trkpt>
      <trkpt lat="46.59881" lon="-1.45049">
        <ele>59</ele>
        <time>2022-02-27T22:53:15Z</time>
      </trkpt>
      <trkpt lat="46.59824" lon="-1.45059">
        <ele>58</ele>
        <time>2022-02-27T22:54:31Z</time>
      </trkpt>
      <trkpt lat="46.59761" lon="-1.45071">
        <ele>56</ele>
        <time>2022-02-27T22:55:56Z</time>
      </trkpt>
      <trkpt lat="46.59755" lon="-1.44988">
        <ele>55</ele>
        <time>2022-02-27T22:57:13Z</time>
      </trkpt>
      <trkpt lat="46.59762" lon="-1.44956">
        <ele>54</ele>
        <time>2022-02-27T22:57:43Z</time>
      </trkpt>
      <trkpt lat="46.59775" lon="-1.44922">
        <ele>53</ele>
        <time>2022-02-27T22:58:19Z</time>
      </trkpt>
      <trkpt lat="46.59757" lon="-1.44879">
        <ele>53</ele>
        <time>2022-02-27T22:59:05Z</time>
      </trkpt>
      <trkpt lat="46.59738" lon="-1.44846">
        <ele>54</ele>
        <time>2022-02-27T22:59:45Z</time>
      </trkpt>
      <trkpt lat="46.59729" lon="-1.44836">
        <ele>54</ele>
        <time>2022-02-27T23:00:00Z</time>
      </trkpt>
      <trkpt lat="46.59705" lon="-1.44846">
        <ele>55</ele>
        <time>2022-02-27T23:00:33Z</time>
      </trkpt>
      <trkpt lat="46.59684" lon="-1.44844">
        <ele>55</ele>
        <time>2022-02-27T23:01:01Z</time>
      </trkpt>
      <trkpt lat="46.59625" lon="-1.44838">
        <ele>56</ele>
        <time>2022-02-27T23:02:20Z</time>
      </trkpt>
      <trkpt lat="46.59556" lon="-1.44839">
        <ele>57</ele>
        <time>2022-02-27T23:03:52Z</time>
      </trkpt>
      <trkpt lat="46.59487" lon="-1.44799">
        <ele>60</ele>
        <time>2022-02-27T23:05:31Z</time>
      </trkpt>
      <trkpt lat="46.59492" lon="-1.44841">
        <ele>59</ele>
        <time>2022-02-27T23:06:10Z</time>
      </trkpt>
      <trkpt lat="46.59498" lon="-1.44872">
        <ele>59</ele>
        <time>2022-02-27T23:06:40Z</time>
      </trkpt>
      <trkpt lat="46.59512" lon="-1.4489">
        <ele>58</ele>
        <time>2022-02-27T23:07:05Z</time>
      </trkpt>
      <trkpt lat="46.59515" lon="-1.44908">
        <ele>57</ele>
        <time>2022-02-27T23:07:22Z</time>
      </trkpt>
      <trkpt lat="46.59529" lon="-1.44931">
        <ele>56</ele>
        <time>2022-02-27T23:07:50Z</time>
      </trkpt>
      <trkpt lat="46.59541" lon="-1.44932">
        <ele>56</ele>
        <time>2022-02-27T23:08:06Z</time>
      </trkpt>
      <trkpt lat="46.59546" lon="-1.44942">
        <ele>56</ele>
        <time>2022-02-27T23:08:17Z</time>
      </trkpt>
      <trkpt lat="46.59545" lon="-1.44951">
        <ele>55</ele>
        <time>2022-02-27T23:08:26Z</time>
      </trkpt>
      <trkpt lat="46.59564" lon="-1.45049">
        <ele>52</ele>
        <time>2022-02-27T23:09:59Z</time>
      </trkpt>
      <trkpt lat="46.59501" lon="-1.45083">
        <ele>52</ele>
        <time>2022-02-27T23:11:29Z</time>
      </trkpt>
      <trkpt lat="46.59509" lon="-1.45111">
        <ele>52</ele>
        <time>2022-02-27T23:11:57Z</time>
      </trkpt>
      <trkpt lat="46.59519" lon="-1.45147">
        <ele>51</ele>
        <time>2022-02-27T23:12:32Z</time>
      </trkpt>
      <trkpt lat="46.59529" lon="-1.45147">
        <ele>51</ele>
        <time>2022-02-27T23:12:46Z</time>
      </trkpt>
      <trkpt lat="46.59538" lon="-1.45149">
        <ele>51</ele>
        <time>2022-02-27T23:12:58Z</time>
      </trkpt>
      <trkpt lat="46.59549" lon="-1.45159">
        <ele>52</ele>
        <time>2022-02-27T23:13:15Z</time>
      </trkpt>
      <trkpt lat="46.59556" lon="-1.45169">
        <ele>52</ele>
        <time>2022-02-27T23:13:28Z</time>
      </trkpt>
      <trkpt lat="46.59547" lon="-1.45181">
        <ele>52</ele>
        <time>2022-02-27T23:13:44Z</time>
      </trkpt>
      <trkpt lat="46.59537" lon="-1.45198">
        <ele>52</ele>
        <time>2022-02-27T23:14:05Z</time>
      </trkpt>
      <trkpt lat="46.59526" lon="-1.45209">
        <ele>52</ele>
        <time>2022-02-27T23:14:23Z</time>
      </trkpt>
      <trkpt lat="46.59518" lon="-1.45233">
        <ele>52</ele>
        <time>2022-02-27T23:14:47Z</time>
      </trkpt>
      <trkpt lat="46.59516" lon="-1.45253">
        <ele>53</ele>
        <time>2022-02-27T23:15:06Z</time>
      </trkpt>
      <trkpt lat="46.59522" lon="-1.4528">
        <ele>53</ele>
        <time>2022-02-27T23:15:32Z</time>
      </trkpt>
      <trkpt lat="46.59529" lon="-1.45306">
        <ele>54</ele>
        <time>2022-02-27T23:15:57Z</time>
      </trkpt>
      <trkpt lat="46.59535" lon="-1.45327">
        <ele>55</ele>
        <time>2022-02-27T23:16:18Z</time>
      </trkpt>
      <trkpt lat="46.59517" lon="-1.45334">
        <ele>54</ele>
        <time>2022-02-27T23:16:43Z</time>
      </trkpt>
    </trkseg>
  </trk>
</gpx>